sensor_id;sensor_type;location;lat;lon;timestamp;pressure;altitude;pressure_sealevel;temperature;humidity
24486;BME280;13449;49.374;8.584;2023-05-01T00:00:29;100454.19;;;8.80;81.87
24486;BME280;13449;49.374;8.584;2023-05-01T00:02:56;100446.53;;;8.77;80.45
24486;BME280;13449;49.374;8.584;2023-05-01T00:05:22;100444.88;;;8.76;81.66
24486;BME280;13449;49.374;8.584;2023-05-01T00:07:49;100451.19;;;8.74;81.73
24486;BME280;13449;49.374;8.584;2023-05-01T00:10:15;100440.66;;;8.74;81.55
24486;BME280;13449;49.374;8.584;2023-05-01T00:12:42;100448.75;;;8.70;82.23
24486;BME280;13449;49.374;8.584;2023-05-01T00:15:09;100434.16;;;8.66;81.73
24486;BME280;13449;49.374;8.584;2023-05-01T00:17:35;100432.47;;;8.65;81.33
24486;BME280;13449;49.374;8.584;2023-05-01T00:20:02;100429.09;;;8.63;81.93
24486;BME280;13449;49.374;8.584;2023-05-01T00:22:30;100425.75;;;8.61;81.40
24486;BME280;13449;49.374;8.584;2023-05-01T00:24:57;100424.06;;;8.60;81.69
24486;BME280;13449;49.374;8.584;2023-05-01T00:27:23;100417.38;;;8.56;81.11
24486;BME280;13449;49.374;8.584;2023-05-01T00:29:50;100423.56;;;8.55;81.59
24486;BME280;13449;49.374;8.584;2023-05-01T00:32:16;100415.78;;;8.54;81.07
24486;BME280;13449;49.374;8.584;2023-05-01T00:34:43;100410.44;;;8.55;81.84
24486;BME280;13449;49.374;8.584;2023-05-01T00:37:11;100409.59;;;8.55;81.91
24486;BME280;13449;49.374;8.584;2023-05-01T00:39:37;100408.75;;;8.54;81.12
24486;BME280;13449;49.374;8.584;2023-05-01T00:42:04;100405.41;;;8.52;80.75
24486;BME280;13449;49.374;8.584;2023-05-01T00:44:33;100401.06;;;8.51;80.72
24486;BME280;13449;49.374;8.584;2023-05-01T00:46:59;100394.13;;;8.50;80.99
24486;BME280;13449;49.374;8.584;2023-05-01T00:49:27;100389.84;;;8.49;79.83
24486;BME280;13449;49.374;8.584;2023-05-01T00:51:54;100395.09;;;8.49;80.32
24486;BME280;13449;49.374;8.584;2023-05-01T00:54:21;100393.19;;;8.51;80.36
24486;BME280;13449;49.374;8.584;2023-05-01T00:56:48;100389.84;;;8.49;79.98
24486;BME280;13449;49.374;8.584;2023-05-01T00:59:16;100381.22;;;8.47;80.42
24486;BME280;13449;49.374;8.584;2023-05-01T01:01:43;100391.84;;;8.46;80.37
24486;BME280;13449;49.374;8.584;2023-05-01T01:04:09;100378.81;;;8.44;80.14
24486;BME280;13449;49.374;8.584;2023-05-01T01:12:09;100378.31;;;8.39;80.46
24486;BME280;13449;49.374;8.584;2023-05-01T01:14:57;100378.31;;;8.39;80.25
24486;BME280;13449;49.374;8.584;2023-05-01T01:17:39;100380.22;;;8.37;80.42
24486;BME280;13449;49.374;8.584;2023-05-01T01:34:54;100361.84;;;8.37;80.43
24486;BME280;13449;49.374;8.584;2023-05-01T01:37:31;100357.50;;;8.36;79.94
24486;BME280;13449;49.374;8.584;2023-05-01T01:40:05;100366.13;;;8.38;80.20
24486;BME280;13449;49.374;8.584;2023-05-01T01:42:36;100357.09;;;8.42;80.03
24486;BME280;13449;49.374;8.584;2023-05-01T01:45:13;100360.88;;;8.38;79.53
24486;BME280;13449;49.374;8.584;2023-05-01T01:47:41;100365.25;;;8.50;80.06
24486;BME280;13449;49.374;8.584;2023-05-01T01:50:10;100361.06;;;8.60;78.71
24486;BME280;13449;49.374;8.584;2023-05-01T01:52:41;100355.91;;;8.72;79.09
24486;BME280;13449;49.374;8.584;2023-05-01T01:55:10;100365.25;;;8.76;78.93
24486;BME280;13449;49.374;8.584;2023-05-01T01:57:38;100370.59;;;8.74;79.97
24486;BME280;13449;49.374;8.584;2023-05-01T02:00:09;100375.97;;;8.73;80.36
24486;BME280;13449;49.374;8.584;2023-05-01T02:02:37;100370.19;;;8.67;80.03
24486;BME280;13449;49.374;8.584;2023-05-01T02:05:06;100368.00;;;8.61;79.50
24486;BME280;13449;49.374;8.584;2023-05-01T02:07:34;100368.22;;;8.58;80.05
24486;BME280;13449;49.374;8.584;2023-05-01T02:10:04;100364.84;;;8.56;79.81
24486;BME280;13449;49.374;8.584;2023-05-01T02:12:34;100361.28;;;8.57;79.98
24486;BME280;13449;49.374;8.584;2023-05-01T02:15:02;100359.59;;;8.56;79.92
24486;BME280;13449;49.374;8.584;2023-05-01T02:17:30;100362.75;;;8.61;80.85
24486;BME280;13449;49.374;8.584;2023-05-01T02:20:00;100354.75;;;8.63;80.73
24486;BME280;13449;49.374;8.584;2023-05-01T02:22:27;100360.00;;;8.63;81.05
24486;BME280;13449;49.374;8.584;2023-05-01T02:24:56;100360.84;;;8.63;80.72
24486;BME280;13449;49.374;8.584;2023-05-01T02:27:34;100362.09;;;8.70;80.33
24486;BME280;13449;49.374;8.584;2023-05-01T02:30:03;100366.53;;;8.70;80.39
24486;BME280;13449;49.374;8.584;2023-05-01T02:32:31;100364.00;;;8.68;81.26
24486;BME280;13449;49.374;8.584;2023-05-01T02:35:00;100352.66;;;8.68;80.32
24486;BME280;13449;49.374;8.584;2023-05-01T02:37:26;100354.97;;;8.73;80.85
24486;BME280;13449;49.374;8.584;2023-05-01T02:39:53;100361.03;;;8.73;81.93
24486;BME280;13449;49.374;8.584;2023-05-01T02:42:24;100359.97;;;8.76;81.87
24486;BME280;13449;49.374;8.584;2023-05-01T02:45:06;100347.81;;;8.75;81.16
24486;BME280;13449;49.374;8.584;2023-05-01T02:47:37;100352.22;;;8.74;81.39
24486;BME280;13449;49.374;8.584;2023-05-01T02:50:06;100349.69;;;8.73;81.00
24486;BME280;13449;49.374;8.584;2023-05-01T02:52:33;100344.44;;;8.73;81.59
24486;BME280;13449;49.374;8.584;2023-05-01T02:55:01;100341.94;;;8.71;80.69
24486;BME280;13449;49.374;8.584;2023-05-01T02:57:29;100339.41;;;8.69;80.43
24486;BME280;13449;49.374;8.584;2023-05-01T02:59:57;100341.72;;;8.74;81.84
24486;BME280;13449;49.374;8.584;2023-05-01T03:02:24;100332.03;;;8.75;81.19
24486;BME280;13449;49.374;8.584;2023-05-01T03:04:51;100325.84;;;8.76;82.12
24486;BME280;13449;49.374;8.584;2023-05-01T03:07:17;100323.22;;;8.76;81.08
24486;BME280;13449;49.374;8.584;2023-05-01T03:09:44;100326.78;;;8.75;80.70
24486;BME280;13449;49.374;8.584;2023-05-01T03:12:10;100322.28;;;8.77;80.55
24486;BME280;13449;49.374;8.584;2023-05-01T03:14:37;100317.75;;;8.79;80.52
24486;BME280;13449;49.374;8.584;2023-05-01T03:17:03;100324.44;;;8.83;80.88
24486;BME280;13449;49.374;8.584;2023-05-01T03:19:30;100320.25;;;8.80;80.68
24486;BME280;13449;49.374;8.584;2023-05-01T03:21:56;100315.00;;;8.80;80.60
24486;BME280;13449;49.374;8.584;2023-05-01T03:24:23;100318.34;;;8.82;80.93
24486;BME280;13449;49.374;8.584;2023-05-01T03:26:49;100309.63;;;8.82;80.14
24486;BME280;13449;49.374;8.584;2023-05-01T03:29:16;100310.38;;;8.84;79.66
24486;BME280;13449;49.374;8.584;2023-05-01T03:31:42;100306.81;;;8.85;79.78
24486;BME280;13449;49.374;8.584;2023-05-01T03:34:09;100308.91;;;8.80;79.15
24486;BME280;13449;49.374;8.584;2023-05-01T03:36:35;100308.06;;;8.79;79.25
24486;BME280;13449;49.374;8.584;2023-05-01T03:39:02;100310.81;;;8.78;79.75
24486;BME280;13449;49.374;8.584;2023-05-01T03:41:30;100304.00;;;8.75;79.74
24486;BME280;13449;49.374;8.584;2023-05-01T03:43:56;100302.56;;;8.95;78.79
24486;BME280;13449;49.374;8.584;2023-05-01T03:46:25;100300.38;;;8.89;78.90
24486;BME280;13449;49.374;8.584;2023-05-01T03:48:52;100310.38;;;8.84;79.37
24486;BME280;13449;49.374;8.584;2023-05-01T03:51:18;100293.38;;;8.77;79.44
24486;BME280;13449;49.374;8.584;2023-05-01T03:53:45;100304.28;;;8.83;80.69
24486;BME280;13449;49.374;8.584;2023-05-01T03:56:11;100306.63;;;8.75;80.49
24486;BME280;13449;49.374;8.584;2023-05-01T03:58:38;100307.69;;;8.73;81.02
24486;BME280;13449;49.374;8.584;2023-05-01T04:01:04;100312.09;;;8.72;82.74
24486;BME280;13449;49.374;8.584;2023-05-01T04:03:31;100314.84;;;8.70;82.67
24486;BME280;13449;49.374;8.584;2023-05-01T04:05:57;100310.00;;;8.64;81.78
24486;BME280;13449;49.374;8.584;2023-05-01T04:08:24;100308.31;;;8.63;82.68
24486;BME280;13449;49.374;8.584;2023-05-01T04:10:53;100308.31;;;8.63;82.93
24486;BME280;13449;49.374;8.584;2023-05-01T04:13:20;100310.00;;;8.64;83.18
24486;BME280;13449;49.374;8.584;2023-05-01T04:15:49;100312.75;;;8.63;82.60
24486;BME280;13449;49.374;8.584;2023-05-01T04:18:15;100312.75;;;8.63;83.38
24486;BME280;13449;49.374;8.584;2023-05-01T04:20:42;100311.69;;;8.65;82.44
24486;BME280;13449;49.374;8.584;2023-05-01T04:23:08;100307.91;;;8.69;83.54
24486;BME280;13449;49.374;8.584;2023-05-01T04:25:37;100313.78;;;8.73;82.94
24486;BME280;13449;49.374;8.584;2023-05-01T04:28:04;100316.78;;;8.80;83.64
24486;BME280;13449;49.374;8.584;2023-05-01T04:30:35;100311.63;;;8.91;83.93
24486;BME280;13449;49.374;8.584;2023-05-01T04:33:04;100313.28;;;8.92;83.60
24486;BME280;13449;49.374;8.584;2023-05-01T04:35:37;100314.00;;;8.94;83.71
24486;BME280;13449;49.374;8.584;2023-05-01T04:38:05;100309.19;;;9.00;83.74
24486;BME280;13449;49.374;8.584;2023-05-01T04:40:31;100311.69;;;9.02;83.14
24486;BME280;13449;49.374;8.584;2023-05-01T04:42:58;100304.31;;;9.07;83.05
24486;BME280;13449;49.374;8.584;2023-05-01T04:45:25;100314.81;;;9.07;82.64
24486;BME280;13449;49.374;8.584;2023-05-01T04:47:52;100310.69;;;9.16;82.42
24486;BME280;13449;49.374;8.584;2023-05-01T04:50:18;100303.41;;;9.19;82.42
24486;BME280;13449;49.374;8.584;2023-05-01T04:52:45;100303.19;;;9.22;82.65
24486;BME280;13449;49.374;8.584;2023-05-01T04:55:11;100301.16;;;9.26;82.19
24486;BME280;13449;49.374;8.584;2023-05-01T04:57:38;100302.00;;;9.26;82.46
24486;BME280;13449;49.374;8.584;2023-05-01T05:00:05;100311.84;;;9.36;81.29
24486;BME280;13449;49.374;8.584;2023-05-01T05:02:32;100303.00;;;9.37;81.52
24486;BME280;13449;49.374;8.584;2023-05-01T05:04:59;100305.28;;;9.41;81.70
24486;BME280;13449;49.374;8.584;2023-05-01T05:07:26;100309.47;;;9.44;81.32
24486;BME280;13449;49.374;8.584;2023-05-01T05:09:55;100314.53;;;9.47;82.11
24486;BME280;13449;49.374;8.584;2023-05-01T05:12:22;100310.94;;;9.48;82.11
24486;BME280;13449;49.374;8.584;2023-05-01T05:14:48;100312.63;;;9.49;82.37
24486;BME280;13449;49.374;8.584;2023-05-01T05:17:15;100308.81;;;9.53;81.52
24486;BME280;13449;49.374;8.584;2023-05-01T05:19:41;100313.81;;;9.56;81.67
24486;BME280;13449;49.374;8.584;2023-05-01T05:22:07;100319.47;;;9.63;81.75
24486;BME280;13449;49.374;8.584;2023-05-01T05:24:34;100315.66;;;9.67;81.75
24486;BME280;13449;49.374;8.584;2023-05-01T05:27:01;100318.78;;;9.72;81.86
24486;BME280;13449;49.374;8.584;2023-05-01T05:29:29;100325.88;;;9.82;82.40
24486;BME280;13449;49.374;8.584;2023-05-01T05:31:55;100321.81;;;9.89;81.82
24486;BME280;13449;49.374;8.584;2023-05-01T05:34:25;100305.56;;;9.96;80.66
24486;BME280;13449;49.374;8.584;2023-05-01T05:36:52;100318.50;;;10.10;80.57
24486;BME280;13449;49.374;8.584;2023-05-01T05:39:20;100305.38;;;10.21;80.61
24486;BME280;13449;49.374;8.584;2023-05-01T05:41:47;100307.28;;;10.30;79.33
24486;BME280;13449;49.374;8.584;2023-05-01T05:44:14;100314.00;;;10.45;79.92
24486;BME280;13449;49.374;8.584;2023-05-01T05:46:43;100316.13;;;10.63;80.31
24486;BME280;13449;49.374;8.584;2023-05-01T05:49:10;100290.97;;;10.70;76.43
24486;BME280;13449;49.374;8.584;2023-05-01T05:51:37;100300.78;;;10.90;77.69
24486;BME280;13449;49.374;8.584;2023-05-01T05:54:03;100282.28;;;11.01;74.48
24486;BME280;13449;49.374;8.584;2023-05-01T05:56:30;100278.66;;;11.14;75.32
24486;BME280;13449;49.374;8.584;2023-05-01T05:58:56;100278.97;;;11.20;74.82
24486;BME280;13449;49.374;8.584;2023-05-01T06:01:23;100285.25;;;11.40;74.11
24486;BME280;13449;49.374;8.584;2023-05-01T06:03:52;100295.19;;;11.68;75.74
24486;BME280;13449;49.374;8.584;2023-05-01T06:06:21;100285.88;;;11.85;73.55
24486;BME280;13449;49.374;8.584;2023-05-01T06:08:50;100275.34;;;11.95;73.55
24486;BME280;13449;49.374;8.584;2023-05-01T06:11:17;100275.22;;;12.17;72.43
24486;BME280;13449;49.374;8.584;2023-05-01T06:13:45;100272.72;;;12.25;72.14
24486;BME280;13449;49.374;8.584;2023-05-01T06:16:14;100252.28;;;12.27;70.00
24486;BME280;13449;49.374;8.584;2023-05-01T06:18:40;100269.44;;;12.43;71.41
24486;BME280;13449;49.374;8.584;2023-05-01T06:21:10;100249.44;;;12.40;69.24
24486;BME280;13449;49.374;8.584;2023-05-01T06:23:37;100258.50;;;12.57;71.03
24486;BME280;13449;49.374;8.584;2023-05-01T06:26:03;100247.56;;;12.71;68.45
24486;BME280;13449;49.374;8.584;2023-05-01T06:28:30;100261.28;;;12.55;69.27
24486;BME280;13449;49.374;8.584;2023-05-01T06:30:56;100246.16;;;12.67;67.49
24486;BME280;13449;49.374;8.584;2023-05-01T06:33:23;100251.44;;;12.77;68.33
24486;BME280;13449;49.374;8.584;2023-05-01T06:35:49;100265.13;;;12.82;70.37
24486;BME280;13449;49.374;8.584;2023-05-01T06:38:16;100274.47;;;12.96;71.56
24486;BME280;13449;49.374;8.584;2023-05-01T06:40:42;100276.00;;;12.98;72.24
24486;BME280;13449;49.374;8.584;2023-05-01T06:43:12;100275.97;;;13.08;71.11
24486;BME280;13449;49.374;8.584;2023-05-01T06:45:40;100276.69;;;13.10;71.41
24486;BME280;13449;49.374;8.584;2023-05-01T06:48:07;100261.09;;;12.97;68.28
24486;BME280;13449;49.374;8.584;2023-05-01T06:50:34;100280.44;;;12.98;71.93
24486;BME280;13449;49.374;8.584;2023-05-01T06:53:00;100273.47;;;13.06;70.94
24486;BME280;13449;49.374;8.584;2023-05-01T06:55:28;100279.63;;;13.16;72.12
24486;BME280;13449;49.374;8.584;2023-05-01T06:58:05;100271.44;;;13.29;70.34
24486;BME280;13449;49.374;8.584;2023-05-01T07:00:47;100281.31;;;13.37;70.13
24486;BME280;13449;49.374;8.584;2023-05-01T07:03:14;100268.22;;;13.45;67.68
24486;BME280;13449;49.374;8.584;2023-05-01T07:05:42;100276.56;;;13.60;69.19
24486;BME280;13449;49.374;8.584;2023-05-01T07:08:09;100266.25;;;13.76;67.90
24486;BME280;13449;49.374;8.584;2023-05-01T07:10:35;100261.47;;;13.89;67.09
24486;BME280;13449;49.374;8.584;2023-05-01T07:13:03;100231.41;;;13.71;61.28
24486;BME280;13449;49.374;8.584;2023-05-01T07:15:29;100215.03;;;13.58;57.74
24486;BME280;13449;49.374;8.584;2023-05-01T07:17:56;100255.41;;;13.60;64.38
24486;BME280;13449;49.374;8.584;2023-05-01T07:20:23;100251.19;;;13.67;64.84
24486;BME280;13449;49.374;8.584;2023-05-01T07:22:50;100251.50;;;13.64;63.71
24486;BME280;13449;49.374;8.584;2023-05-01T07:25:19;100240.38;;;13.51;61.23
24486;BME280;13449;49.374;8.584;2023-05-01T07:27:48;100253.19;;;13.45;61.49
24486;BME280;13449;49.374;8.584;2023-05-01T07:30:14;100226.03;;;13.43;57.42
24486;BME280;13449;49.374;8.584;2023-05-01T07:32:43;100246.63;;;13.40;61.47
24486;BME280;13449;49.374;8.584;2023-05-01T07:35:10;100247.63;;;13.48;62.47
24486;BME280;13449;49.374;8.584;2023-05-01T07:37:39;100238.13;;;13.56;59.63
24486;BME280;13449;49.374;8.584;2023-05-01T07:40:05;100231.75;;;13.48;58.55
24486;BME280;13449;49.374;8.584;2023-05-01T07:42:32;100208.91;;;13.38;56.16
24486;BME280;13449;49.374;8.584;2023-05-01T07:44:58;100232.56;;;13.39;59.40
24486;BME280;13449;49.374;8.584;2023-05-01T07:47:25;100217.00;;;13.36;56.45
24486;BME280;13449;49.374;8.584;2023-05-01T07:49:52;100225.91;;;13.35;57.90
24486;BME280;13449;49.374;8.584;2023-05-01T07:52:21;100220.31;;;13.38;57.76
24486;BME280;13449;49.374;8.584;2023-05-01T07:54:51;100217.28;;;13.43;56.50
24486;BME280;13449;49.374;8.584;2023-05-01T07:57:17;100223.53;;;13.42;57.62
24486;BME280;13449;49.374;8.584;2023-05-01T07:59:44;100208.66;;;13.31;56.76
24486;BME280;13449;49.374;8.584;2023-05-01T08:02:15;100210.16;;;13.43;56.38
24486;BME280;13449;49.374;8.584;2023-05-01T08:04:42;100223.41;;;13.43;58.99
24486;BME280;13449;49.374;8.584;2023-05-01T08:07:08;100233.41;;;13.49;59.40
24486;BME280;13449;49.374;8.584;2023-05-01T08:09:35;100231.16;;;13.55;58.55
24486;BME280;13449;49.374;8.584;2023-05-01T08:12:02;100237.88;;;13.49;58.87
24486;BME280;13449;49.374;8.584;2023-05-01T08:14:29;100250.13;;;13.60;60.99
24486;BME280;13449;49.374;8.584;2023-05-01T08:16:56;100227.97;;;13.51;57.42
24486;BME280;13449;49.374;8.584;2023-05-01T08:19:23;100234.78;;;13.54;57.98
24486;BME280;13449;49.374;8.584;2023-05-01T08:21:49;100225.03;;;13.54;56.62
24486;BME280;13449;49.374;8.584;2023-05-01T08:24:16;100229.94;;;13.49;57.68
24486;BME280;13449;49.374;8.584;2023-05-01T08:26:43;100242.31;;;13.48;58.22
24486;BME280;13449;49.374;8.584;2023-05-01T08:29:10;100240.38;;;13.51;57.77
24486;BME280;13449;49.374;8.584;2023-05-01T08:31:36;100245.13;;;13.47;57.87
24486;BME280;13449;49.374;8.584;2023-05-01T08:34:05;100225.91;;;13.35;56.66
24486;BME280;13449;49.374;8.584;2023-05-01T08:36:31;100225.34;;;13.41;56.86
24486;BME280;13449;49.374;8.584;2023-05-01T08:38:58;100226.56;;;13.57;56.61
24486;BME280;13449;49.374;8.584;2023-05-01T08:41:26;100221.16;;;13.48;55.76
24486;BME280;13449;49.374;8.584;2023-05-01T08:43:55;100247.28;;;13.71;58.46
24486;BME280;13449;49.374;8.584;2023-05-01T08:46:47;100223.59;;;13.69;56.65
24486;BME280;13449;49.374;8.584;2023-05-01T08:49:22;100224.44;;;13.79;56.51
24486;BME280;13449;49.374;8.584;2023-05-01T08:51:50;100214.91;;;13.87;56.21
24486;BME280;13449;49.374;8.584;2023-05-01T08:54:19;100224.50;;;13.97;56.52
24486;BME280;13449;49.374;8.584;2023-05-01T08:56:49;100219.34;;;13.96;56.24
24486;BME280;13449;49.374;8.584;2023-05-01T08:59:17;100221.91;;;14.15;56.32
24486;BME280;13449;49.374;8.584;2023-05-01T09:01:44;100215.31;;;14.29;55.42
24486;BME280;13449;49.374;8.584;2023-05-01T09:04:12;100235.78;;;14.82;57.34
24486;BME280;13449;49.374;8.584;2023-05-01T09:06:39;100216.78;;;15.04;56.56
24486;BME280;13449;49.374;8.584;2023-05-01T09:09:06;100208.69;;;15.06;53.60
24486;BME280;13449;49.374;8.584;2023-05-01T09:11:33;100201.19;;;15.01;53.17
24486;BME280;13449;49.374;8.584;2023-05-01T09:14:00;100213.53;;;15.10;54.30
24486;BME280;13449;49.374;8.584;2023-05-01T09:16:28;100220.88;;;15.34;54.79
24486;BME280;13449;49.374;8.584;2023-05-01T09:18:57;100206.50;;;15.01;52.41
24486;BME280;13449;49.374;8.584;2023-05-01T09:21:28;100213.50;;;15.28;53.82
24486;BME280;13449;49.374;8.584;2023-05-01T09:23:57;100212.19;;;15.50;54.14
24486;BME280;13449;49.374;8.584;2023-05-01T09:26:23;100211.44;;;15.40;54.25
24486;BME280;13449;49.374;8.584;2023-05-01T09:28:52;100205.38;;;15.29;52.69
24486;BME280;13449;49.374;8.584;2023-05-01T09:31:26;100211.09;;;15.35;54.28
24486;BME280;13449;49.374;8.584;2023-05-01T09:33:59;100199.38;;;15.45;53.58
24486;BME280;13449;49.374;8.584;2023-05-01T09:36:28;100204.13;;;15.60;53.71
24486;BME280;13449;49.374;8.584;2023-05-01T09:38:57;100189.03;;;15.60;51.28
24486;BME280;13449;49.374;8.584;2023-05-01T09:41:26;100199.84;;;15.93;52.67
24486;BME280;13449;49.374;8.584;2023-05-01T09:43:55;100188.69;;;15.81;51.34
24486;BME280;13449;49.374;8.584;2023-05-01T09:46:22;100197.09;;;15.76;53.10
24486;BME280;13449;49.374;8.584;2023-05-01T09:49:00;100194.84;;;15.81;51.92
24486;BME280;13449;49.374;8.584;2023-05-01T09:51:32;100196.59;;;16.49;51.70
24486;BME280;13449;49.374;8.584;2023-05-01T09:54:01;100182.22;;;16.68;51.31
24486;BME280;13449;49.374;8.584;2023-05-01T09:56:29;100180.25;;;17.19;49.61
24486;BME280;13449;49.374;8.584;2023-05-01T10:01:44;100178.91;;;16.98;48.75
24486;BME280;13449;49.374;8.584;2023-05-01T10:04:12;100201.88;;;17.16;52.79
24486;BME280;13449;49.374;8.584;2023-05-01T10:06:39;100171.94;;;17.14;47.98
24486;BME280;13449;49.374;8.584;2023-05-01T10:09:06;100182.59;;;17.14;49.92
24486;BME280;13449;49.374;8.584;2023-05-01T10:11:52;100176.28;;;17.23;48.41
24486;BME280;13449;49.374;8.584;2023-05-01T10:14:22;100187.22;;;17.20;49.73
24486;BME280;13449;49.374;8.584;2023-05-01T10:16:50;100185.88;;;17.48;49.15
24486;BME280;13449;49.374;8.584;2023-05-01T10:19:23;100172.59;;;17.40;47.51
24486;BME280;13449;49.374;8.584;2023-05-01T10:21:49;100187.91;;;17.38;48.46
24486;BME280;13449;49.374;8.584;2023-05-01T10:24:16;100175.88;;;17.75;47.68
24486;BME280;13449;49.374;8.584;2023-05-01T10:26:47;100186.50;;;17.66;47.44
24486;BME280;13449;49.374;8.584;2023-05-01T10:29:14;100184.53;;;17.77;47.04
24486;BME280;13449;49.374;8.584;2023-05-01T10:31:40;100181.38;;;18.20;47.35
24486;BME280;13449;49.374;8.584;2023-05-01T10:34:09;100180.38;;;18.21;47.13
24486;BME280;13449;49.374;8.584;2023-05-01T10:36:46;100179.88;;;17.71;47.82
24486;BME280;13449;49.374;8.584;2023-05-01T10:39:33;100183.38;;;18.18;48.42
24486;BME280;13449;49.374;8.584;2023-05-01T10:42:04;100179.41;;;18.45;48.76
24486;BME280;13449;49.374;8.584;2023-05-01T10:44:31;100183.75;;;18.07;48.44
24486;BME280;13449;49.374;8.584;2023-05-01T10:50:10;100163.00;;;18.25;46.31
24486;BME280;13449;49.374;8.584;2023-05-01T10:55:45;100169.06;;;18.19;46.41
24486;BME280;13449;49.374;8.584;2023-05-01T10:58:53;100158.50;;;18.57;45.34
24486;BME280;13449;49.374;8.584;2023-05-01T11:03:57;100147.28;;;18.39;45.29
24486;BME280;13449;49.374;8.584;2023-05-01T11:06:24;100155.84;;;18.57;46.98
24486;BME280;13449;49.374;8.584;2023-05-01T11:08:51;100148.94;;;18.40;44.63
24486;BME280;13449;49.374;8.584;2023-05-01T11:14:02;100145.69;;;18.83;45.73
24486;BME280;13449;49.374;8.584;2023-05-01T11:21:39;100152.50;;;18.32;47.42
24486;BME280;13449;49.374;8.584;2023-05-01T11:24:07;100148.50;;;18.28;48.07
24486;BME280;13449;49.374;8.584;2023-05-01T11:26:37;100151.66;;;18.32;47.80
24486;BME280;13449;49.374;8.584;2023-05-01T11:29:05;100153.06;;;18.19;46.93
24486;BME280;13449;49.374;8.584;2023-05-01T11:31:32;100160.34;;;18.56;49.01
24486;BME280;13449;49.374;8.584;2023-05-01T11:33:59;100156.38;;;18.21;47.35
24486;BME280;13449;49.374;8.584;2023-05-01T11:36:27;100154.66;;;18.29;48.91
24486;BME280;13449;49.374;8.584;2023-05-01T11:38:58;100149.84;;;18.55;46.27
24486;BME280;13449;49.374;8.584;2023-05-01T11:41:27;100149.56;;;18.50;46.85
24486;BME280;13449;49.374;8.584;2023-05-01T11:43:57;100148.16;;;18.62;47.16
24486;BME280;13449;49.374;8.584;2023-05-01T11:46:29;100139.63;;;18.36;47.05
24486;BME280;13449;49.374;8.584;2023-05-01T11:49:01;100147.75;;;18.42;46.50
24486;BME280;13449;49.374;8.584;2023-05-01T11:51:29;100153.53;;;18.54;49.30
24486;BME280;13449;49.374;8.584;2023-05-01T11:54:04;100147.09;;;18.94;47.86
24486;BME280;13449;49.374;8.584;2023-05-01T11:56:34;100132.16;;;18.85;46.21
24486;BME280;13449;49.374;8.584;2023-05-01T11:59:13;100144.38;;;18.79;47.27
24486;BME280;13449;49.374;8.584;2023-05-01T12:01:44;100136.06;;;18.74;46.36
24486;BME280;13449;49.374;8.584;2023-05-01T12:04:12;100127.78;;;18.61;46.15
24486;BME280;13449;49.374;8.584;2023-05-01T12:06:44;100130.78;;;18.89;46.17
24486;BME280;13449;49.374;8.584;2023-05-01T12:09:21;100126.59;;;18.95;46.62
24486;BME280;13449;49.374;8.584;2023-05-01T12:11:50;100124.47;;;18.67;45.87
24486;BME280;13449;49.374;8.584;2023-05-01T12:14:21;100133.41;;;18.74;46.79
24486;BME280;13449;49.374;8.584;2023-05-01T12:16:49;100127.88;;;18.76;45.78
24486;BME280;13449;49.374;8.584;2023-05-01T12:19:19;100133.72;;;18.79;47.15
24486;BME280;13449;49.374;8.584;2023-05-01T12:22:04;100134.16;;;19.06;45.52
24486;BME280;13449;49.374;8.584;2023-05-01T12:24:30;100128.00;;;18.82;44.81
24486;BME280;13449;49.374;8.584;2023-05-01T12:27:00;100123.47;;;19.06;44.51
24486;BME280;13449;49.374;8.584;2023-05-01T12:29:39;100124.78;;;19.10;45.14
24486;BME280;13449;49.374;8.584;2023-05-01T12:32:10;100125.72;;;18.79;45.22
24486;BME280;13449;49.374;8.584;2023-05-01T12:34:37;100130.59;;;18.91;45.52
24486;BME280;13449;49.374;8.584;2023-05-01T12:37:05;100126.00;;;18.84;45.04
24486;BME280;13449;49.374;8.584;2023-05-01T12:39:38;100122.69;;;18.82;45.67
24486;BME280;13449;49.374;8.584;2023-05-01T12:42:13;100119.03;;;18.75;45.33
24486;BME280;13449;49.374;8.584;2023-05-01T12:44:43;100125.75;;;18.71;46.47
24486;BME280;13449;49.374;8.584;2023-05-01T12:47:11;100121.59;;;18.92;45.14
24486;BME280;13449;49.374;8.584;2023-05-01T12:49:40;100120.63;;;19.07;45.02
24486;BME280;13449;49.374;8.584;2023-05-01T12:52:07;100118.28;;;18.90;44.80
24486;BME280;13449;49.374;8.584;2023-05-01T12:54:35;100114.34;;;19.00;45.48
24486;BME280;13449;49.374;8.584;2023-05-01T12:57:10;100120.88;;;18.98;45.07
24486;BME280;13449;49.374;8.584;2023-05-01T12:59:37;100107.44;;;19.06;43.96
24486;BME280;13449;49.374;8.584;2023-05-01T13:02:06;100109.66;;;19.02;44.74
24486;BME280;13449;49.374;8.584;2023-05-01T13:04:33;100117.91;;;18.93;43.69
24486;BME280;13449;49.374;8.584;2023-05-01T13:07:00;100108.69;;;18.80;43.52
24486;BME280;13449;49.374;8.584;2023-05-01T13:09:28;100109.38;;;18.51;44.67
24486;BME280;13449;49.374;8.584;2023-05-01T13:12:04;100097.88;;;18.51;43.72
24486;BME280;13449;49.374;8.584;2023-05-01T13:14:43;100109.84;;;18.55;45.98
24486;BME280;13449;49.374;8.584;2023-05-01T13:19:57;100102.50;;;19.18;44.49
24486;BME280;13449;49.374;8.584;2023-05-01T13:22:32;100114.66;;;19.20;46.31
24486;BME280;13449;49.374;8.584;2023-05-01T13:25:00;100113.88;;;18.97;44.69
24486;BME280;13449;49.374;8.584;2023-05-01T13:27:28;100113.25;;;18.95;43.72
24486;BME280;13449;49.374;8.584;2023-05-01T13:29:56;100129.16;;;19.03;47.83
24486;BME280;13449;49.374;8.584;2023-05-01T13:32:25;100132.63;;;18.89;48.38
24486;BME280;13449;49.374;8.584;2023-05-01T13:34:52;100114.72;;;18.74;46.00
24486;BME280;13449;49.374;8.584;2023-05-01T13:37:19;100111.03;;;18.75;46.00
24486;BME280;13449;49.374;8.584;2023-05-01T13:39:46;100125.84;;;19.01;48.88
24486;BME280;13449;49.374;8.584;2023-05-01T13:42:22;100117.94;;;19.07;47.54
24486;BME280;13449;49.374;8.584;2023-05-01T13:44:51;100121.53;;;19.00;47.95